Time;durP1;ratioP1;P1;durP2;ratioP2;P2;SDS_P1;SDS_P2;PMS_P1;PMS_P2;Temp;Humidity;BMP_temperature;BMP_pressure;BME280_temperature;BME280_humidity;BME280_pressure;Samples;Min_cycle;Max_cycle;Signal;HPM_P1;HPM_P2
2022/01/31 00:00:15;;;;;;;3.77;2.40;;;6.40;99.90;;;;;;5036672;28;20487;-78
2022/01/31 00:02:45;;;;;;;4.93;1.83;;;6.40;99.90;;;;;;5035163;28;20471;-78
2022/01/31 00:05:15;;;;;;;6.25;2.40;;;6.50;99.90;;;;;;5037610;28;20536;-79
2022/01/31 00:07:43;;;;;;;2.75;1.75;;;6.40;99.90;;;;;;5037244;28;20256;-78
2022/01/31 00:10:13;;;;;;;7.00;2.00;;;6.40;99.90;;;;;;5038097;28;20205;-78
2022/01/31 00:12:53;;;;;;;4.40;2.53;;;6.40;99.90;;;;;;5037112;28;20240;-78
2022/01/31 00:15:21;;;;;;;4.57;2.47;;;6.30;99.90;;;;;;5038510;28;20456;-78
2022/01/31 00:17:50;;;;;;;3.60;2.40;;;6.20;99.90;;;;;;5031827;28;20468;-78
2022/01/31 00:20:19;;;;;;;4.38;2.05;;;6.20;99.90;;;;;;5039022;28;20476;-78
2022/01/31 00:22:48;;;;;;;3.27;2.13;;;6.30;99.90;;;;;;5033028;28;20315;-78
2022/01/31 00:25:16;;;;;;;7.35;2.55;;;6.30;99.90;;;;;;5036521;28;20452;-78
2022/01/31 00:27:44;;;;;;;4.38;1.88;;;6.40;99.90;;;;;;5033304;28;20225;-78
2022/01/31 00:30:13;;;;;;;4.97;2.43;;;6.40;99.90;;;;;;5035099;28;20208;-78
2022/01/31 00:32:41;;;;;;;7.83;2.60;;;6.40;99.90;;;;;;5037932;28;20455;-78
2022/01/31 00:35:11;;;;;;;12.17;2.43;;;6.40;99.90;;;;;;5036012;28;20547;-78
2022/01/31 00:37:41;;;;;;;4.05;2.58;;;6.50;99.90;;;;;;5038855;28;20468;-77
2022/01/31 00:40:11;;;;;;;4.10;3.00;;;6.60;99.90;;;;;;5035969;28;20225;-77
2022/01/31 00:42:40;;;;;;;3.90;2.47;;;6.50;99.90;;;;;;5033856;28;20452;-77
2022/01/31 00:45:13;;;;;;;2.47;1.90;;;6.50;99.90;;;;;;5035003;28;20214;-78
2022/01/31 00:47:45;;;;;;;6.73;1.70;;;6.50;99.90;;;;;;5034618;28;20855;-77
2022/01/31 00:50:15;;;;;;;2.80;2.30;;;6.50;99.90;;;;;;5034948;28;21051;-78
2022/01/31 00:52:46;;;;;;;4.93;2.07;;;6.40;99.90;;;;;;5035787;28;20451;-78
2022/01/31 00:55:15;;;;;;;6.07;2.23;;;6.50;99.90;;;;;;5037866;28;20463;-78
2022/01/31 00:57:45;;;;;;;1.97;1.73;;;6.40;99.90;;;;;;5037897;28;21159;-78
2022/01/31 01:00:15;;;;;;;3.73;1.80;;;6.50;99.90;;;;;;5044742;28;20486;-77
2022/01/31 01:02:43;;;;;;;7.10;2.50;;;6.50;99.90;;;;;;5034949;28;20459;-77
2022/01/31 01:05:12;;;;;;;8.07;2.33;;;6.70;99.90;;;;;;5035473;28;20448;-77
2022/01/31 01:07:45;;;;;;;4.53;1.92;;;6.60;99.90;;;;;;5031420;28;20475;-77
2022/01/31 01:10:15;;;;;;;5.77;2.20;;;6.30;99.90;;;;;;5044146;28;20189;-77
2022/01/31 01:12:43;;;;;;;3.40;1.93;;;6.40;99.90;;;;;;5035319;28;20471;-77
2022/01/31 01:15:13;;;;;;;7.18;2.80;;;6.10;99.90;;;;;;5037036;28;20470;-77
2022/01/31 01:17:41;;;;;;;4.65;2.20;;;6.10;99.90;;;;;;5039195;28;20267;-78
2022/01/31 01:20:11;;;;;;;6.65;1.60;;;6.20;99.90;;;;;;5038731;28;20223;-78
2022/01/31 01:22:39;;;;;;;1.95;1.75;;;6.20;99.90;;;;;;5036242;28;20194;-77
2022/01/31 01:25:08;;;;;;;5.60;2.40;;;6.20;99.90;;;;;;5036133;28;20198;-77
2022/01/31 01:27:38;;;;;;;6.78;1.90;;;6.10;99.90;;;;;;5033749;28;20217;-78
2022/01/31 01:30:09;;;;;;;3.13;1.90;;;6.10;99.90;;;;;;5037634;28;20621;-78
2022/01/31 01:32:47;;;;;;;10.20;2.90;;;6.20;99.90;;;;;;5035349;28;20202;-77
2022/01/31 01:35:15;;;;;;;3.63;1.53;;;6.30;99.90;;;;;;5047501;28;20455;-78
2022/01/31 01:37:43;;;;;;;2.45;1.90;;;6.30;99.90;;;;;;5040327;28;20978;-78
2022/01/31 01:40:12;;;;;;;12.70;2.80;;;6.50;99.90;;;;;;5036858;28;20293;-78
2022/01/31 01:42:41;;;;;;;3.67;2.10;;;6.60;99.90;;;;;;5039624;28;20506;-78
2022/01/31 01:45:10;;;;;;;4.97;1.93;;;6.60;99.90;;;;;;5040746;28;21097;-77
2022/01/31 01:47:38;;;;;;;3.60;1.90;;;6.40;99.90;;;;;;5041622;28;20480;-78
2022/01/31 01:50:08;;;;;;;2.27;1.63;;;6.40;99.90;;;;;;5041174;28;20201;-78
2022/01/31 01:52:37;;;;;;;3.73;2.07;;;6.30;99.90;;;;;;5040465;28;20444;-77
2022/01/31 01:55:07;;;;;;;7.40;1.40;;;6.40;99.90;;;;;;5041144;28;20451;-77
2022/01/31 01:57:35;;;;;;;1.83;1.33;;;6.40;99.90;;;;;;5035236;28;20474;-79
2022/01/31 02:00:08;;;;;;;3.47;1.98;;;6.40;99.90;;;;;;5041567;28;20511;-78
2022/01/31 02:02:37;;;;;;;4.93;2.05;;;6.30;99.90;;;;;;5037647;28;20241;-78
2022/01/31 02:05:05;;;;;;;2.53;1.40;;;6.20;99.90;;;;;;5040705;28;20290;-78
2022/01/31 02:07:35;;;;;;;3.30;1.90;;;6.20;99.90;;;;;;5040428;28;20260;-77
2022/01/31 02:10:06;;;;;;;7.38;2.40;;;5.90;99.90;;;;;;5040772;28;20198;-77
2022/01/31 02:12:40;;;;;;;2.63;1.42;;;5.80;99.90;;;;;;5040241;28;20208;-78
2022/01/31 02:15:12;;;;;;;7.47;1.80;;;5.50;99.90;;;;;;5039588;28;20668;-77
2022/01/31 02:17:41;;;;;;;7.78;2.13;;;6.00;99.90;;;;;;5038263;28;20486;-77
2022/01/31 02:20:11;;;;;;;9.48;2.50;;;5.80;99.90;;;;;;5042113;28;20197;-76
2022/01/31 02:22:40;;;;;;;12.70;1.75;;;5.80;99.90;;;;;;5040581;28;20661;-77
2022/01/31 02:25:10;;;;;;;4.80;2.30;;;6.00;99.90;;;;;;5041644;28;20227;-77
2022/01/31 02:27:39;;;;;;;6.25;2.05;;;5.70;99.90;;;;;;5037300;28;20998;-77
2022/01/31 02:30:09;;;;;;;7.10;2.08;;;5.80;99.90;;;;;;5040541;28;20197;-77
2022/01/31 02:32:38;;;;;;;2.67;1.90;;;5.80;99.90;;;;;;5042170;28;20189;-78
2022/01/31 02:35:07;;;;;;;3.38;1.75;;;5.40;99.90;;;;;;5039898;28;20214;-78
2022/01/31 02:37:36;;;;;;;2.22;1.50;;;5.20;99.90;;;;;;5031766;28;20753;-77
2022/01/31 02:40:07;;;;;;;3.90;1.90;;;5.20;99.90;;;;;;5046508;28;20939;-78
2022/01/31 02:42:35;;;;;;;2.97;1.60;;;5.40;99.90;;;;;;5040188;28;23442;-76
2022/01/31 02:45:05;;;;;;;4.00;1.55;;;5.70;99.90;;;;;;5038968;28;20209;-76
2022/01/31 02:47:38;;;;;;;2.07;1.60;;;5.60;99.90;;;;;;5038999;28;20693;-77
2022/01/31 02:50:12;;;;;;;4.72;1.80;;;5.80;99.90;;;;;;5038819;28;20482;-76
2022/01/31 02:52:46;;;;;;;4.05;1.65;;;5.60;99.90;;;;;;5040214;28;20685;-77
2022/01/31 02:55:16;;;;;;;5.70;1.80;;;5.60;99.90;;;;;;5036736;28;20192;-77
2022/01/31 02:57:45;;;;;;;3.15;1.38;;;5.60;99.90;;;;;;5040794;28;20236;-77
2022/01/31 03:00:14;;;;;;;4.50;1.52;;;5.70;99.90;;;;;;5043465;28;20250;-77
2022/01/31 03:02:42;;;;;;;5.07;1.58;;;5.60;99.90;;;;;;5040899;28;20609;-77
2022/01/31 03:05:10;;;;;;;1.35;1.25;;;5.50;99.90;;;;;;5040319;28;20197;-77
2022/01/31 03:07:38;;;;;;;4.40;1.70;;;5.30;99.90;;;;;;5041865;28;20225;-77
2022/01/31 03:10:07;;;;;;;3.58;1.73;;;5.00;99.90;;;;;;5044687;28;20209;-77
2022/01/31 03:12:36;;;;;;;2.53;1.60;;;5.00;99.90;;;;;;5041343;28;20193;-77
2022/01/31 03:15:05;;;;;;;5.00;2.10;;;5.10;99.90;;;;;;5043089;28;20459;-78
2022/01/31 03:17:34;;;;;;;3.65;1.30;;;5.00;99.90;;;;;;5043258;28;20275;-78
2022/01/31 03:20:02;;;;;;;3.38;1.48;;;5.00;99.90;;;;;;5043900;28;20201;-77
2022/01/31 03:22:31;;;;;;;3.38;1.50;;;5.00;99.90;;;;;;5043781;28;20278;-77
2022/01/31 03:24:59;;;;;;;3.42;1.73;;;5.10;99.90;;;;;;5044135;28;20211;-77
2022/01/31 03:27:27;;;;;;;4.10;1.80;;;5.20;99.90;;;;;;5043162;28;20228;-77
2022/01/31 03:29:57;;;;;;;2.50;1.80;;;4.70;99.90;;;;;;5042955;28;20874;-77
2022/01/31 03:32:25;;;;;;;2.33;1.98;;;4.80;99.90;;;;;;5042674;28;20200;-76
2022/01/31 03:34:53;;;;;;;2.80;1.48;;;5.20;99.90;;;;;;5042104;28;20650;-77
2022/01/31 03:37:21;;;;;;;2.25;1.70;;;5.30;99.90;;;;;;5045310;28;20276;-76
2022/01/31 03:39:49;;;;;;;3.65;1.60;;;5.50;99.90;;;;;;5044378;28;20255;-77
2022/01/31 03:42:18;;;;;;;2.92;1.80;;;5.10;99.90;;;;;;5043896;28;20232;-77
2022/01/31 03:44:47;;;;;;;8.52;1.73;;;5.20;99.90;;;;;;5040612;28;20229;-78
2022/01/31 03:47:17;;;;;;;3.35;2.25;;;5.10;99.90;;;;;;5042827;28;20221;-78
2022/01/31 03:49:45;;;;;;;8.10;2.60;;;5.00;99.90;;;;;;5043356;28;20198;-78
2022/01/31 03:52:14;;;;;;;5.50;1.48;;;4.80;99.90;;;;;;5042880;28;20211;-78
2022/01/31 03:54:42;;;;;;;6.63;1.60;;;4.70;99.90;;;;;;5045745;28;20212;-78
2022/01/31 03:57:10;;;;;;;3.50;1.27;;;5.00;99.90;;;;;;5040709;28;20221;-77
2022/01/31 03:59:39;;;;;;;3.50;1.52;;;5.20;99.90;;;;;;5041793;28;20195;-78
2022/01/31 04:02:07;;;;;;;4.75;1.88;;;5.10;99.90;;;;;;5047588;28;20231;-78
2022/01/31 04:04:37;;;;;;;6.40;1.57;;;5.10;99.90;;;;;;5045635;28;20224;-79
2022/01/31 04:07:06;;;;;;;4.68;1.40;;;5.20;99.90;;;;;;5041195;28;20480;-78
2022/01/31 04:09:34;;;;;;;2.83;1.70;;;5.20;99.90;;;;;;5044959;28;20188;-78
2022/01/31 04:12:02;;;;;;;3.22;1.27;;;5.30;99.90;;;;;;5043756;28;20208;-76
2022/01/31 04:14:31;;;;;;;2.45;2.15;;;5.10;99.90;;;;;;5037758;28;20198;-77
2022/01/31 04:17:00;;;;;;;3.80;1.40;;;5.10;99.90;;;;;;5039412;28;20218;-78
2022/01/31 04:19:28;;;;;;;3.95;1.30;;;5.50;99.90;;;;;;5044146;28;20281;-77
2022/01/31 04:21:57;;;;;;;6.78;1.52;;;5.30;99.90;;;;;;5039524;28;20662;-78
2022/01/31 04:24:32;;;;;;;3.78;2.08;;;5.30;99.90;;;;;;5042036;28;20274;-79
2022/01/31 04:27:05;;;;;;;2.80;1.40;;;5.40;99.90;;;;;;5039263;28;20282;-78
2022/01/31 04:29:37;;;;;;;4.65;1.80;;;5.50;99.90;;;;;;5042557;28;20485;-78
2022/01/31 04:32:06;;;;;;;5.00;1.85;;;5.80;99.90;;;;;;5045602;28;20205;-77
2022/01/31 04:34:34;;;;;;;3.22;1.20;;;5.70;99.90;;;;;;5037373;28;20198;-77
2022/01/31 04:37:05;;;;;;;2.33;1.80;;;5.60;99.90;;;;;;5038250;28;20604;-77
2022/01/31 04:39:33;;;;;;;4.70;1.73;;;5.40;99.90;;;;;;5046049;28;20213;-78
2022/01/31 04:42:02;;;;;;;5.88;1.70;;;5.30;99.90;;;;;;5042223;28;20751;-77
2022/01/31 04:44:30;;;;;;;7.78;1.50;;;5.20;99.90;;;;;;5051165;28;20205;-77
2022/01/31 04:46:58;;;;;;;4.65;1.80;;;5.20;99.90;;;;;;5037666;28;20217;-77
2022/01/31 04:49:26;;;;;;;5.80;1.70;;;5.30;99.90;;;;;;5050584;28;20493;-77
2022/01/31 04:51:54;;;;;;;7.28;1.63;;;5.30;99.90;;;;;;5056524;28;20457;-77
2022/01/31 04:54:24;;;;;;;3.77;1.50;;;5.30;99.90;;;;;;5039241;28;20723;-78
2022/01/31 04:56:52;;;;;;;2.23;1.37;;;5.40;99.90;;;;;;5049500;28;20499;-78
2022/01/31 04:59:21;;;;;;;2.60;1.27;;;5.40;99.90;;;;;;5049518;28;20539;-78
2022/01/31 05:01:50;;;;;;;4.27;1.23;;;5.50;99.90;;;;;;5048720;28;20458;-78
2022/01/31 05:04:18;;;;;;;2.38;1.20;;;5.40;99.90;;;;;;5037816;28;20450;-78
2022/01/31 05:06:48;;;;;;;6.32;1.65;;;5.50;99.90;;;;;;5047617;28;20217;-78
2022/01/31 05:09:16;;;;;;;4.10;1.30;;;5.50;99.90;;;;;;5046532;28;20206;-77
2022/01/31 05:11:46;;;;;;;3.60;1.17;;;5.50;99.90;;;;;;5045134;28;20580;-78
2022/01/31 05:14:16;;;;;;;3.80;0.90;;;5.40;99.90;;;;;;5049499;28;20266;-78
2022/01/31 05:16:44;;;;;;;2.85;1.27;;;5.60;99.90;;;;;;5055849;28;20451;-78
2022/01/31 05:19:12;;;;;;;2.37;1.10;;;5.60;99.90;;;;;;5046049;28;20259;-76
2022/01/31 05:21:40;;;;;;;4.37;1.20;;;5.50;99.90;;;;;;5049877;28;20454;-75
2022/01/31 05:24:10;;;;;;;5.13;1.70;;;5.30;99.90;;;;;;5045729;28;20483;-78
2022/01/31 05:26:38;;;;;;;2.90;1.30;;;5.20;99.90;;;;;;5054950;28;20193;-78
2022/01/31 05:29:08;;;;;;;2.65;1.33;;;5.10;99.90;;;;;;5039476;28;20226;-78
2022/01/31 05:31:36;;;;;;;3.17;1.85;;;5.00;99.90;;;;;;5059661;28;20229;-77
2022/01/31 05:34:05;;;;;;;1.93;1.43;;;4.80;99.90;;;;;;5053693;28;20189;-77
2022/01/31 05:36:34;;;;;;;1.95;1.10;;;4.90;99.90;;;;;;5037247;28;20447;-78
2022/01/31 05:39:02;;;;;;;3.80;1.50;;;5.10;99.90;;;;;;5039347;28;20235;-77
2022/01/31 05:41:30;;;;;;;1.92;1.80;;;4.70;1.00;;;;;;5051083;28;20216;-78
2022/01/31 05:43:59;;;;;;;2.53;1.63;;;4.90;99.90;;;;;;5052513;28;20225;-78
2022/01/31 05:46:28;;;;;;;10.23;1.55;;;4.90;99.90;;;;;;5055422;28;20227;-79
2022/01/31 05:48:56;;;;;;;5.85;2.20;;;4.70;99.90;;;;;;5054591;28;20229;-79
2022/01/31 05:51:25;;;;;;;2.42;1.45;;;4.80;1.00;;;;;;5048368;28;20566;-78
2022/01/31 05:53:53;;;;;;;4.55;1.45;;;4.50;1.00;;;;;;5049708;28;20231;-79
2022/01/31 05:56:21;;;;;;;4.75;1.40;;;4.30;1.00;;;;;;5044873;28;20220;-78
2022/01/31 05:58:50;;;;;;;2.25;1.30;;;4.60;1.00;;;;;;5041991;28;20840;-79
2022/01/31 06:01:18;;;;;;;6.78;1.70;;;4.50;1.00;;;;;;5048767;28;20199;-79
2022/01/31 06:03:48;;;;;;;1.80;1.63;;;4.90;1.00;;;;;;5049941;28;20756;-78
2022/01/31 06:06:16;;;;;;;1.65;1.40;;;4.80;1.00;;;;;;5044567;28;20212;-79
2022/01/31 06:08:44;;;;;;;2.67;1.30;;;5.00;1.00;;;;;;5042083;28;20757;-78
2022/01/31 06:11:13;;;;;;;2.25;1.15;;;4.90;1.00;;;;;;5038235;28;20217;-78
2022/01/31 06:13:44;;;;;;;4.60;1.50;;;4.80;1.00;;;;;;5048212;28;20621;-80
2022/01/31 06:16:13;;;;;;;3.25;1.58;;;5.00;1.00;;;;;;5036985;28;20216;-80
2022/01/31 06:18:41;;;;;;;11.40;2.10;;;5.00;99.90;;;;;;5035529;28;20240;-79
2022/01/31 06:21:12;;;;;;;2.00;1.27;;;5.10;99.90;;;;;;5040779;28;20206;-80
2022/01/31 06:23:40;;;;;;;7.53;1.30;;;5.20;99.90;;;;;;5038575;28;20722;-79
2022/01/31 06:26:10;;;;;;;6.05;1.90;;;5.10;1.00;;;;;;5038065;28;20501;-78
2022/01/31 06:28:38;;;;;;;6.18;1.70;;;5.20;1.00;;;;;;5046865;28;20711;-78
2022/01/31 06:31:06;;;;;;;2.20;1.75;;;5.20;1.00;;;;;;5042145;28;20232;-79
2022/01/31 06:33:34;;;;;;;3.85;2.28;;;5.30;1.00;;;;;;5052479;28;20661;-79
2022/01/31 06:36:03;;;;;;;2.55;1.33;;;5.40;1.00;;;;;;5045253;28;20193;-78
2022/01/31 06:38:35;;;;;;;4.55;1.70;;;5.10;1.00;;;;;;5040421;28;20212;-80
2022/01/31 06:41:03;;;;;;;3.20;1.58;;;5.20;1.00;;;;;;5060683;28;20220;-79
2022/01/31 06:43:32;;;;;;;4.25;1.48;;;5.20;1.00;;;;;;5041256;28;20252;-79
2022/01/31 06:46:00;;;;;;;5.47;1.90;;;5.20;1.00;;;;;;5036459;28;20292;-79
2022/01/31 06:48:28;;;;;;;3.65;1.33;;;5.10;99.90;;;;;;5048223;28;20217;-78
2022/01/31 06:50:57;;;;;;;2.85;1.40;;;5.20;99.90;;;;;;5053970;28;20999;-79
2022/01/31 06:53:27;;;;;;;6.30;2.17;;;5.30;99.90;;;;;;5043448;28;20229;-78
2022/01/31 06:55:59;;;;;;;1.73;1.45;;;5.50;99.90;;;;;;5044964;28;20292;-79
2022/01/31 06:58:27;;;;;;;3.30;1.42;;;5.30;99.90;;;;;;5055032;28;20229;-79
2022/01/31 07:00:57;;;;;;;5.82;1.60;;;5.30;99.90;;;;;;5049912;28;20232;-79
2022/01/31 07:03:25;;;;;;;3.67;1.50;;;5.30;99.90;;;;;;5048522;28;20209;-79
2022/01/31 07:05:54;;;;;;;8.50;2.03;;;5.60;98.00;;;;;;5040389;28;20214;-79
2022/01/31 07:08:23;;;;;;;4.00;1.23;;;5.50;90.30;;;;;;5049953;28;20484;-79
2022/01/31 07:10:52;;;;;;;4.65;1.50;;;5.20;99.90;;;;;;5045809;28;20220;-78
2022/01/31 07:13:35;;;;;;;2.20;1.40;;;5.10;1.00;;;;;;5052283;28;20197;-79
2022/01/31 07:16:05;;;;;;;3.70;1.58;;;5.50;1.00;;;;;;5047819;28;20558;-78
2022/01/31 07:18:35;;;;;;;3.22;2.30;;;5.50;1.00;;;;;;5048885;28;20237;-78
2022/01/31 07:21:04;;;;;;;1.50;1.07;;;5.50;99.90;;;;;;5044329;28;20205;-78
2022/01/31 07:23:51;;;;;;;1.70;1.60;;;5.90;99.90;;;;;;5050111;28;20470;-79
2022/01/31 07:26:19;;;;;;;4.25;1.42;;;5.70;1.00;;;;;;5050727;28;20607;-78
2022/01/31 07:28:49;;;;;;;2.13;1.30;;;5.70;1.00;;;;;;5054152;28;20295;-79
2022/01/31 07:31:18;;;;;;;1.90;1.40;;;5.60;99.90;;;;;;5044896;28;20214;-79
2022/01/31 07:33:46;;;;;;;2.03;1.48;;;5.50;30.30;;;;;;5055201;28;20471;-80
2022/01/31 07:36:14;;;;;;;6.05;1.80;;;5.50;99.90;;;;;;5047726;28;20194;-79
2022/01/31 07:38:43;;;;;;;4.35;1.40;;;5.60;6.90;;;;;;5052480;28;20274;-79
2022/01/31 07:41:14;;;;;;;3.10;1.10;;;5.70;1.00;;;;;;5051143;28;20581;-79
2022/01/31 07:43:44;;;;;;;1.95;1.15;;;6.00;1.00;;;;;;5057809;28;20278;-79
2022/01/31 07:46:15;;;;;;;3.35;1.13;;;5.70;1.00;;;;;;5043767;28;20198;-78
2022/01/31 07:48:43;;;;;;;2.05;1.00;;;5.50;83.00;;;;;;5059838;28;20645;-79
2022/01/31 07:51:11;;;;;;;2.95;1.50;;;5.60;93.40;;;;;;5051713;28;20194;-79
2022/01/31 07:53:40;;;;;;;3.20;1.10;;;5.80;1.00;;;;;;5046114;28;20231;-78
2022/01/31 07:56:09;;;;;;;2.50;2.03;;;5.90;99.90;;;;;;5053956;28;20980;-79
2022/01/31 07:58:38;;;;;;;2.45;1.20;;;5.80;1.00;;;;;;5047809;28;20285;-79
2022/01/31 08:01:07;;;;;;;1.63;1.00;;;5.90;99.90;;;;;;5049313;28;20193;-79
2022/01/31 08:03:37;;;;;;;2.63;1.10;;;5.90;99.90;;;;;;5054411;28;20486;-80
2022/01/31 08:06:06;;;;;;;2.10;0.93;;;5.80;99.90;;;;;;5054150;28;20496;-79
2022/01/31 08:08:36;;;;;;;1.47;1.00;;;5.70;1.00;;;;;;5051158;28;20474;-80
2022/01/31 08:11:05;;;;;;;0.73;0.73;;;5.80;1.00;;;;;;5052077;28;21002;-79
2022/01/31 08:13:34;;;;;;;1.07;0.90;;;5.90;1.00;;;;;;5054009;28;20810;-79
2022/01/31 08:16:09;;;;;;;4.00;1.00;;;6.10;99.90;;;;;;5053365;28;20458;-80
2022/01/31 08:18:41;;;;;;;1.47;0.70;;;6.10;99.90;;;;;;5055303;28;20526;-79
2022/01/31 08:21:12;;;;;;;1.73;1.00;;;5.80;99.90;;;;;;5044369;28;20466;-80
2022/01/31 08:23:41;;;;;;;1.67;1.10;;;5.80;1.00;;;;;;5054179;28;20525;-79
2022/01/31 08:26:12;;;;;;;1.33;1.10;;;5.80;1.00;;;;;;5066198;28;20481;-80
2022/01/31 08:28:43;;;;;;;2.00;0.70;;;5.80;1.00;;;;;;5047299;28;20476;-80
2022/01/31 08:31:16;;;;;;;0.63;0.63;;;5.70;1.00;;;;;;5048611;28;20543;-80
2022/01/31 08:33:50;;;;;;;2.87;1.40;;;5.80;1.00;;;;;;5045705;28;20448;-79
2022/01/31 08:36:18;;;;;;;1.10;0.97;;;6.00;99.90;;;;;;5049642;28;20498;-78
2022/01/31 08:38:47;;;;;;;1.30;1.00;;;6.20;99.90;;;;;;5055755;28;20467;-79
2022/01/31 08:41:15;;;;;;;0.90;0.60;;;6.10;99.90;;;;;;5049572;28;20460;-80
2022/01/31 08:43:44;;;;;;;0.60;0.60;;;6.20;99.90;;;;;;5044765;28;20455;-79
2022/01/31 08:46:14;;;;;;;0.75;0.73;;;6.40;99.90;;;;;;5046947;28;20463;-79
2022/01/31 08:48:44;;;;;;;0.60;0.60;;;6.50;83.90;;;;;;5050630;28;20214;-79
2022/01/31 08:51:13;;;;;;;0.87;0.60;;;6.50;1.00;;;;;;5047338;28;20460;-79
2022/01/31 08:53:42;;;;;;;1.90;1.00;;;6.50;18.90;;;;;;5052216;28;20856;-79
2022/01/31 08:56:12;;;;;;;0.70;0.63;;;6.60;1.00;;;;;;5056828;28;21280;-79
2022/01/31 08:58:45;;;;;;;0.95;0.55;;;6.40;13.50;;;;;;5049598;28;20468;-80
2022/01/31 09:01:17;;;;;;;1.00;0.50;;;6.50;1.00;;;;;;5058513;28;20289;-80
2022/01/31 09:04:01;;;;;;;0.80;0.70;;;6.80;1.00;;;;;;5048275;28;20459;-80
2022/01/31 09:06:33;;;;;;;0.80;0.50;;;6.60;1.00;;;;;;5047869;28;21027;-79
2022/01/31 09:09:08;;;;;;;1.20;0.53;;;6.50;1.00;;;;;;5036586;28;20459;-79
2022/01/31 09:11:37;;;;;;;2.43;0.50;;;6.30;1.00;;;;;;5053985;28;20446;-79
2022/01/31 09:14:06;;;;;;;0.70;0.60;;;6.20;26.30;;;;;;5055495;28;20498;-79
2022/01/31 09:16:34;;;;;;;1.43;0.60;;;6.10;96.60;;;;;;5043631;28;20456;-79
2022/01/31 09:19:02;;;;;;;0.90;0.70;;;6.20;99.90;;;;;;5049911;28;20466;-79
2022/01/31 09:21:32;;;;;;;0.60;0.60;;;6.30;61.40;;;;;;5054256;28;20458;-80
2022/01/31 09:24:01;;;;;;;0.87;0.63;;;6.20;99.90;;;;;;5056976;28;20448;-79
2022/01/31 09:26:29;;;;;;;0.57;0.57;;;6.30;99.90;;;;;;5043054;28;20469;-79
2022/01/31 09:28:58;;;;;;;0.57;0.57;;;6.40;99.90;;;;;;5035237;28;20472;-79
2022/01/31 09:31:26;;;;;;;0.53;0.53;;;6.40;99.90;;;;;;5044557;28;20465;-80
2022/01/31 09:33:54;;;;;;;0.70;0.57;;;6.70;99.20;;;;;;5050407;28;20482;-79
2022/01/31 09:36:23;;;;;;;0.80;0.73;;;6.80;1.00;;;;;;5045917;28;20487;-79
2022/01/31 09:38:53;;;;;;;1.03;1.03;;;7.00;1.00;;;;;;5036759;28;20463;-80
2022/01/31 09:41:24;;;;;;;0.70;0.60;;;7.20;1.00;;;;;;5065333;28;20455;-78
2022/01/31 09:44:06;;;;;;;0.87;0.60;;;7.20;1.00;;;;;;5055742;28;20475;-78
2022/01/31 09:49:22;;;;;;;1.23;0.63;;;7.50;1.00;;;;;;5049033;28;20250;-79
2022/01/31 09:51:51;;;;;;;1.90;0.80;;;7.60;99.90;;;;;;5049288;28;20697;-80
2022/01/31 09:54:21;;;;;;;0.90;0.50;;;7.70;99.90;;;;;;5053107;28;20497;-79
2022/01/31 09:56:49;;;;;;;1.27;0.80;;;7.60;99.90;;;;;;5047537;28;20493;-80
2022/01/31 09:59:18;;;;;;;0.80;0.60;;;7.60;99.90;;;;;;5051470;28;20455;-80
2022/01/31 10:01:52;;;;;;;1.70;0.70;;;7.60;99.90;;;;;;5048296;28;20466;-80
2022/01/31 10:04:22;;;;;;;3.30;0.73;;;7.70;99.90;;;;;;5053596;28;20875;-79
2022/01/31 10:06:52;;;;;;;1.03;0.93;;;7.60;99.90;;;;;;5037816;28;20469;-80
2022/01/31 10:09:24;;;;;;;0.93;0.60;;;7.70;99.90;;;;;;5046415;28;20464;-80
2022/01/31 10:11:57;;;;;;;2.47;0.73;;;7.40;99.90;;;;;;5041419;28;20471;-79
2022/01/31 10:17:23;;;;;;;3.50;0.83;;;7.40;99.90;;;;;;5041816;28;20474;-79
2022/01/31 10:20:00;;;;;;;1.43;0.93;;;7.50;99.90;;;;;;5048216;28;20465;-79
2022/01/31 10:22:30;;;;;;;1.13;0.77;;;7.60;99.90;;;;;;5046278;28;20458;-79
2022/01/31 10:25:09;;;;;;;1.83;1.00;;;7.60;99.90;;;;;;5051293;28;20485;-79
2022/01/31 10:27:57;;;;;;;2.33;0.80;;;7.70;99.90;;;;;;5043849;28;21024;-79
2022/01/31 10:30:28;;;;;;;1.83;0.80;;;7.40;99.90;;;;;;5055294;28;20628;-79
2022/01/31 10:32:58;;;;;;;0.93;0.70;;;7.40;99.90;;;;;;5040877;28;20768;-79
2022/01/31 10:35:29;;;;;;;0.97;0.90;;;7.40;99.90;;;;;;5046329;28;20444;-78
2022/01/31 10:38:01;;;;;;;1.00;0.80;;;7.40;99.90;;;;;;5045065;28;20512;-79
2022/01/31 10:43:58;;;;;;;0.87;0.87;;;7.50;99.90;;;;;;5062737;28;20538;-79
2022/01/31 10:52:19;;;;;;;1.00;1.00;;;7.80;99.90;;;;;;5049508;28;20960;-80
2022/01/31 10:54:51;;;;;;;0.70;0.70;;;7.90;99.90;;;;;;5051582;28;20453;-80
2022/01/31 10:57:23;;;;;;;4.00;1.13;;;8.00;99.90;;;;;;5053890;28;20464;-78
2022/01/31 11:00:01;;;;;;;5.40;1.00;;;7.90;99.90;;;;;;5044789;28;20468;-78
2022/01/31 11:02:29;;;;;;;0.60;0.60;;;7.80;99.90;;;;;;5048764;28;20453;-80
2022/01/31 11:04:58;;;;;;;1.47;0.60;;;7.90;99.90;;;;;;5047978;28;20470;-79
2022/01/31 11:07:29;;;;;;;2.27;0.80;;;7.90;99.90;;;;;;5042295;28;20905;-80
2022/01/31 11:09:57;;;;;;;2.70;0.80;;;7.90;99.90;;;;;;5039025;28;20551;-79
2022/01/31 11:12:27;;;;;;;2.27;0.60;;;7.90;99.90;;;;;;5041124;28;20554;-79
2022/01/31 11:14:56;;;;;;;0.87;0.73;;;8.00;99.90;;;;;;5048984;28;20877;-80
2022/01/31 11:17:26;;;;;;;0.73;0.60;;;8.00;99.90;;;;;;5044743;28;20485;-79
2022/01/31 11:19:57;;;;;;;0.77;0.70;;;8.00;99.90;;;;;;5044522;28;20459;-80
2022/01/31 11:22:32;;;;;;;0.80;0.80;;;8.00;99.90;;;;;;5041856;28;21062;-79
2022/01/31 11:25:19;;;;;;;2.47;0.67;;;8.00;99.90;;;;;;5039743;28;20471;-78
2022/01/31 11:27:58;;;;;;;0.70;0.70;;;8.10;99.90;;;;;;5046140;28;20507;-79
2022/01/31 11:30:26;;;;;;;0.73;0.70;;;8.10;99.90;;;;;;5045766;28;20441;-79
2022/01/31 11:32:55;;;;;;;3.47;0.70;;;8.00;99.90;;;;;;5050925;28;20966;-79
2022/01/31 11:35:24;;;;;;;0.87;0.87;;;7.90;99.90;;;;;;5048129;28;20449;-79
2022/01/31 11:37:53;;;;;;;1.30;0.70;;;7.80;99.90;;;;;;5045179;28;21007;-79
2022/01/31 11:40:22;;;;;;;1.67;0.70;;;7.70;99.90;;;;;;5047704;28;20456;-81
2022/01/31 11:42:52;;;;;;;0.50;0.50;;;7.70;99.90;;;;;;5060312;28;20501;-79
2022/01/31 11:45:26;;;;;;;3.43;0.90;;;7.50;99.90;;;;;;5050775;28;20484;-79
2022/01/31 11:47:58;;;;;;;1.80;0.70;;;7.70;99.90;;;;;;5050039;28;20492;-79
2022/01/31 11:50:27;;;;;;;1.17;0.60;;;7.70;99.90;;;;;;5049266;28;20456;-79
2022/01/31 11:52:58;;;;;;;2.97;0.80;;;7.60;99.90;;;;;;5068376;28;20550;-79
2022/01/31 11:55:33;;;;;;;1.13;0.70;;;7.70;99.90;;;;;;5046674;28;20466;-79
2022/01/31 11:58:05;;;;;;;0.53;0.53;;;7.70;99.90;;;;;;5048751;28;21028;-79
2022/01/31 12:00:38;;;;;;;0.60;0.60;;;7.70;99.90;;;;;;5049818;28;20466;-80
2022/01/31 12:03:10;;;;;;;0.53;0.53;;;7.70;99.90;;;;;;5039262;28;20459;-79
2022/01/31 12:05:40;;;;;;;0.60;0.60;;;7.70;99.90;;;;;;5047655;28;20603;-79
2022/01/31 12:08:11;;;;;;;1.70;0.60;;;7.60;99.90;;;;;;5041607;28;20486;-79
2022/01/31 12:10:42;;;;;;;2.40;0.67;;;7.60;99.90;;;;;;5047818;28;20525;-79
2022/01/31 12:13:38;;;;;;;0.93;0.57;;;7.50;99.90;;;;;;5055975;28;20448;-78
2022/01/31 12:16:34;;;;;;;2.23;0.83;;;7.40;99.90;;;;;;5041924;28;20454;-79
2022/01/31 12:19:28;;;;;;;1.87;0.60;;;7.40;99.90;;;;;;5047915;28;20465;-79
2022/01/31 12:22:02;;;;;;;1.77;0.70;;;7.50;99.90;;;;;;5046601;28;20480;-79
2022/01/31 12:24:33;;;;;;;1.77;0.80;;;7.50;99.90;;;;;;5041426;28;20991;-79
2022/01/31 12:27:10;;;;;;;2.47;0.70;;;7.50;99.90;;;;;;5041040;28;20478;-79
2022/01/31 12:29:42;;;;;;;0.97;0.80;;;7.40;99.90;;;;;;5050198;28;20481;-79
2022/01/31 12:32:15;;;;;;;2.53;0.80;;;7.40;99.90;;;;;;5048381;28;20460;-79
2022/01/31 12:34:50;;;;;;;2.30;0.73;;;7.40;99.90;;;;;;5049881;28;20457;-79
2022/01/31 12:37:30;;;;;;;1.43;0.80;;;7.30;99.90;;;;;;5050661;28;20480;-79
2022/01/31 12:40:13;;;;;;;3.83;0.80;;;7.40;99.90;;;;;;5062610;28;20472;-78
2022/01/31 12:46:06;;;;;;;0.73;0.73;;;7.20;99.90;;;;;;5043331;28;20848;-79
2022/01/31 12:48:36;;;;;;;1.40;1.00;;;6.90;99.90;;;;;;5046264;28;20498;-79
2022/01/31 12:51:15;;;;;;;2.57;0.90;;;6.90;99.90;;;;;;5055677;28;20457;-80
2022/01/31 12:53:52;;;;;;;1.10;1.00;;;7.00;99.90;;;;;;5042228;28;21058;-78
2022/01/31 12:56:30;;;;;;;3.07;0.77;;;7.00;99.90;;;;;;5050585;28;20463;-79
2022/01/31 12:59:14;;;;;;;1.67;0.77;;;7.10;99.90;;;;;;5046924;28;20460;-79
2022/01/31 13:01:44;;;;;;;1.20;0.67;;;7.10;99.90;;;;;;5057004;28;20471;-78
2022/01/31 13:04:17;;;;;;;0.83;0.70;;;7.40;99.90;;;;;;5043491;28;20840;-79
2022/01/31 13:06:49;;;;;;;4.07;0.97;;;7.20;99.90;;;;;;5048023;28;20509;-78
2022/01/31 13:09:23;;;;;;;1.20;0.70;;;7.30;99.90;;;;;;5052638;28;20456;-79
2022/01/31 13:11:55;;;;;;;1.30;0.60;;;7.30;99.90;;;;;;5048392;28;20460;-79
2022/01/31 13:14:25;;;;;;;1.70;1.03;;;7.40;99.90;;;;;;5047928;28;20485;-78
2022/01/31 13:17:13;;;;;;;1.33;0.63;;;7.00;99.90;;;;;;5053141;28;21546;-79
2022/01/31 13:19:45;;;;;;;3.53;0.80;;;7.20;99.90;;;;;;5044374;28;20559;-77
2022/01/31 13:22:17;;;;;;;1.27;0.80;;;7.20;99.90;;;;;;5057541;28;20453;-77
2022/01/31 13:24:48;;;;;;;0.57;0.57;;;7.20;99.90;;;;;;5052848;28;20455;-77
2022/01/31 13:27:19;;;;;;;2.13;0.87;;;7.40;99.90;;;;;;5053055;28;20504;-77
2022/01/31 13:30:10;;;;;;;1.47;0.70;;;7.30;99.90;;;;;;5051559;28;20465;-78
2022/01/31 13:32:40;;;;;;;1.10;0.97;;;7.10;99.90;;;;;;5045723;28;20456;-77